createdAt,value
2022-10-08T00:01:55.988Z,100706.06
2022-10-08T00:04:27.093Z,100699.05
2022-10-08T00:06:57.902Z,100694.96
2022-10-08T00:09:28.733Z,100692.75
2022-10-08T00:11:59.565Z,100690.18
2022-10-08T00:14:30.465Z,100683.67
2022-10-08T00:17:01.271Z,100680.26
2022-10-08T00:19:32.154Z,100676.67
2022-10-08T00:22:03.009Z,100679.41
2022-10-08T00:24:34.006Z,100671.73
2022-10-08T00:27:04.899Z,100667.80
2022-10-08T00:29:35.909Z,100667.47
2022-10-08T00:32:07.200Z,100663.53
2022-10-08T00:34:38.382Z,100660.47
2022-10-08T00:37:09.189Z,100660.48
2022-10-08T00:39:40.318Z,100655.70
2022-10-08T00:42:13.756Z,100655.54
2022-10-08T00:44:55.632Z,100645.77
2022-10-08T00:47:39.540Z,100644.94
2022-10-08T00:50:14.570Z,100638.61
2022-10-08T00:52:48.578Z,100637.95
2022-10-08T00:55:22.217Z,100637.95
2022-10-08T00:57:53.798Z,100633.34
2022-10-08T01:00:26.944Z,100628.73
2022-10-08T01:02:58.211Z,100626.51
2022-10-08T01:05:39.395Z,100620.34
2022-10-08T01:08:17.886Z,100623.09
2022-10-08T01:10:58.264Z,100612.81
2022-10-08T01:13:40.084Z,100613.34
2022-10-08T01:16:26.422Z,100611.45
2022-10-08T01:19:06.725Z,100608.41
2022-10-08T01:21:47.563Z,100607.03
2022-10-08T01:24:51.638Z,100603.29
2022-10-08T01:27:29.522Z,100599.03
2022-10-08T01:30:05.909Z,100597.49
2022-10-08T01:32:43.183Z,100591.15
2022-10-08T01:35:19.694Z,100584.83
2022-10-08T01:37:56.218Z,100581.41
2022-10-08T01:40:31.671Z,100582.13
2022-10-08T01:43:06.411Z,100580.26
2022-10-08T01:45:40.052Z,100575.98
2022-10-08T01:48:16.203Z,100573.27
2022-10-08T01:50:58.658Z,100569.50
2022-10-08T01:53:34.004Z,100570.37
2022-10-08T01:56:09.571Z,100570.02
2022-10-08T01:58:47.611Z,100565.59
2022-10-08T02:01:25.394Z,100563.39
2022-10-08T02:04:14.736Z,100563.08
2022-10-08T02:06:50.247Z,100563.63
2022-10-08T02:09:22.678Z,100561.59
2022-10-08T02:11:53.645Z,100561.27
2022-10-08T02:14:27.719Z,100563.00
2022-10-08T02:17:12.563Z,100560.77
2022-10-08T02:19:49.620Z,100562.66
2022-10-08T02:22:24.130Z,100559.09
2022-10-08T02:25:01.265Z,100556.35
2022-10-08T02:27:37.194Z,100551.72
2022-10-08T02:30:12.133Z,100548.48
2022-10-08T02:32:51.129Z,100549.33
2022-10-08T02:35:27.701Z,100541.97
2022-10-08T02:38:04.797Z,100539.59
2022-10-08T02:40:40.240Z,100536.01
2022-10-08T02:43:16.573Z,100534.65
2022-10-08T02:45:52.230Z,100533.95
2022-10-08T02:48:28.048Z,100533.65
2022-10-08T02:51:03.275Z,100534.16
2022-10-08T02:53:33.296Z,100532.63
2022-10-08T02:56:15.055Z,100534.54
2022-10-08T02:58:46.676Z,100532.49
2022-10-08T03:01:26.743Z,100529.11
2022-10-08T03:04:04.609Z,100529.66
2022-10-08T03:06:36.056Z,100529.18
2022-10-08T03:09:08.373Z,100527.66
2022-10-08T03:11:39.966Z,100527.85
2022-10-08T03:14:14.506Z,100522.74
2022-10-08T03:16:47.772Z,100526.02
2022-10-08T03:19:20.194Z,100521.23
2022-10-08T03:21:54.732Z,100522.27
2022-10-08T03:24:25.677Z,100519.70
2022-10-08T03:26:56.507Z,100520.07
2022-10-08T03:29:27.342Z,100521.10
2022-10-08T03:31:58.155Z,100520.25
2022-10-08T03:34:29.094Z,100519.40
2022-10-08T03:36:59.892Z,100516.69
2022-10-08T03:39:30.706Z,100508.98
2022-10-08T03:42:01.489Z,100506.92
2022-10-08T03:44:32.359Z,100502.98
2022-10-08T03:47:03.165Z,100504.16
2022-10-08T03:49:34.059Z,100502.60
2022-10-08T03:52:05.038Z,100504.30
2022-10-08T03:54:38.468Z,100504.60
2022-10-08T03:57:09.324Z,100499.95
2022-10-08T03:59:40.174Z,100504.04
2022-10-08T04:02:11.153Z,100506.56
2022-10-08T04:04:42.348Z,100503.80
2022-10-08T04:07:13.210Z,100507.37
2022-10-08T04:09:44.116Z,100505.45
2022-10-08T04:12:14.956Z,100505.24
2022-10-08T04:14:46.000Z,100506.94
2022-10-08T04:17:16.921Z,100506.04
2022-10-08T04:19:47.881Z,100503.95
2022-10-08T04:22:18.729Z,100505.45
2022-10-08T04:24:49.662Z,100505.77
2022-10-08T04:27:21.064Z,100499.57
2022-10-08T04:29:51.985Z,100501.40
2022-10-08T04:32:22.883Z,100499.48
2022-10-08T04:34:53.760Z,100495.66
2022-10-08T04:37:24.691Z,100496.48
2022-10-08T04:39:56.109Z,100494.72
2022-10-08T04:42:26.888Z,100492.83
2022-10-08T04:44:57.685Z,100495.51
2022-10-08T04:47:28.678Z,100489.48
2022-10-08T04:49:59.800Z,100490.98
2022-10-08T04:52:32.598Z,100487.70
2022-10-08T04:55:03.454Z,100488.84
2022-10-08T04:57:34.836Z,100484.86
2022-10-08T05:00:18.224Z,100483.97
2022-10-08T05:02:50.218Z,100483.07
2022-10-08T05:05:25.316Z,100484.41
2022-10-08T05:07:56.911Z,100483.84
2022-10-08T05:10:27.731Z,100481.09
2022-10-08T05:12:59.024Z,100479.66
2022-10-08T05:15:30.297Z,100481.34
2022-10-08T05:18:01.167Z,100480.62
2022-10-08T05:20:32.186Z,100482.46
2022-10-08T05:23:03.077Z,100486.36
2022-10-08T05:25:35.510Z,100490.07
2022-10-08T05:28:06.911Z,100493.08
2022-10-08T05:30:37.969Z,100493.84
2022-10-08T05:33:08.888Z,100494.43
2022-10-08T05:35:41.333Z,100491.91
2022-10-08T05:38:12.524Z,100495.73
2022-10-08T05:40:43.385Z,100496.44
2022-10-08T05:43:14.359Z,100500.48
2022-10-08T05:45:53.202Z,100504.61
2022-10-08T05:48:24.353Z,100501.27
2022-10-08T05:50:55.321Z,100499.56
2022-10-08T05:53:26.217Z,100500.52
2022-10-08T05:56:03.783Z,100502.83
2022-10-08T05:58:36.393Z,100509.03
2022-10-08T06:01:09.229Z,100508.25
2022-10-08T06:03:40.338Z,100509.40
2022-10-08T06:06:14.753Z,100512.65
2022-10-08T06:08:46.250Z,100510.95
2022-10-08T06:11:20.201Z,100515.42
2022-10-08T06:13:55.270Z,100514.02
2022-10-08T06:16:24.714Z,100515.51
2022-10-08T06:18:56.022Z,100515.63
2022-10-08T06:21:29.392Z,100510.88
2022-10-08T06:24:02.227Z,100510.52
2022-10-08T06:26:36.407Z,100512.77
2022-10-08T06:29:08.885Z,100508.89
2022-10-08T06:31:39.904Z,100509.63
2022-10-08T06:34:10.923Z,100511.06
2022-10-08T06:36:42.237Z,100513.52
2022-10-08T06:39:17.954Z,100516.50
2022-10-08T06:41:48.889Z,100516.56
2022-10-08T06:44:20.384Z,100520.92
2022-10-08T06:46:51.559Z,100522.58
2022-10-08T06:49:26.854Z,100521.06
2022-10-08T06:51:57.661Z,100515.88
2022-10-08T06:54:28.825Z,100520.75
2022-10-08T06:57:00.254Z,100520.33
2022-10-08T06:59:32.166Z,100522.23
2022-10-08T07:02:03.065Z,100523.10
2022-10-08T07:04:34.035Z,100524.54
2022-10-08T07:07:04.953Z,100525.73
2022-10-08T07:09:35.880Z,100525.23
2022-10-08T07:12:09.872Z,100521.80
2022-10-08T07:14:40.737Z,100522.29
2022-10-08T07:17:11.892Z,100522.25
2022-10-08T07:19:43.039Z,100523.79
2022-10-08T07:22:14.927Z,100524.77
2022-10-08T07:24:46.039Z,100518.83
2022-10-08T07:27:17.796Z,100520.45
2022-10-08T07:29:48.815Z,100513.62
2022-10-08T07:32:19.970Z,100514.20
2022-10-08T07:34:50.855Z,100513.58
2022-10-08T07:37:21.835Z,100516.45
2022-10-08T07:39:52.984Z,100516.17
2022-10-08T07:42:24.137Z,100516.75
2022-10-08T07:44:55.037Z,100513.91
2022-10-08T07:47:26.256Z,100506.00
2022-10-08T07:49:57.229Z,100504.79
2022-10-08T07:52:28.196Z,100504.62
2022-10-08T07:54:59.261Z,100503.09
2022-10-08T07:57:30.692Z,100501.00
2022-10-08T08:00:01.765Z,100500.49
2022-10-08T08:02:32.920Z,100496.55
2022-10-08T08:05:04.034Z,100497.55
2022-10-08T08:07:34.909Z,100494.27
2022-10-08T08:10:06.917Z,100489.36
2022-10-08T08:12:37.833Z,100490.52
2022-10-08T08:15:10.727Z,100491.50
2022-10-08T08:17:41.660Z,100492.94
2022-10-08T08:20:13.248Z,100492.45
2022-10-08T08:22:44.591Z,100486.68
2022-10-08T08:25:16.057Z,100489.02
2022-10-08T08:27:49.315Z,100485.50
2022-10-08T08:30:20.910Z,100491.39
2022-10-08T08:32:52.432Z,100485.33
2022-10-08T08:35:23.836Z,100487.19
2022-10-08T08:37:55.240Z,100489.05
2022-10-08T08:40:30.195Z,100485.06
2022-10-08T08:43:02.658Z,100484.49
2022-10-08T08:45:53.364Z,100486.05
2022-10-08T08:48:28.857Z,100487.33
2022-10-08T08:51:00.128Z,100480.04
2022-10-08T08:53:31.737Z,100480.93
2022-10-08T08:56:07.241Z,100478.36
2022-10-08T08:58:43.739Z,100476.50
2022-10-08T09:01:24.179Z,100479.89
2022-10-08T09:03:57.134Z,100476.30
2022-10-08T09:06:30.067Z,100474.70
2022-10-08T09:09:06.510Z,100473.31
2022-10-08T09:11:40.470Z,100472.18
2022-10-08T09:14:28.976Z,100469.79
2022-10-08T09:17:01.367Z,100467.60
2022-10-08T09:19:32.829Z,100464.73
2022-10-08T09:22:04.017Z,100469.38
2022-10-08T09:24:36.765Z,100468.98
2022-10-08T09:27:15.854Z,100473.52
2022-10-08T09:29:47.143Z,100472.92
2022-10-08T09:32:21.298Z,100477.33
2022-10-08T09:34:56.823Z,100478.45
2022-10-08T09:37:28.468Z,100477.23
2022-10-08T09:40:22.547Z,100474.80
2022-10-08T09:43:15.426Z,100471.61
2022-10-08T09:45:48.553Z,100464.34
2022-10-08T09:48:25.882Z,100460.45
2022-10-08T09:51:14.284Z,100455.14
2022-10-08T09:53:48.555Z,100448.50
2022-10-08T09:56:28.054Z,100447.47
2022-10-08T09:59:02.261Z,100449.11
2022-10-08T10:01:34.347Z,100446.70
2022-10-08T10:04:06.715Z,100445.67
2022-10-08T10:06:41.574Z,100444.94
2022-10-08T10:09:27.944Z,100443.04
2022-10-08T10:12:05.048Z,100438.45
2022-10-08T10:14:44.535Z,100446.83
2022-10-08T10:17:20.878Z,100443.21
2022-10-08T10:19:56.746Z,100441.36
2022-10-08T10:22:34.238Z,100440.51
2022-10-08T10:25:14.139Z,100436.48
2022-10-08T10:27:50.082Z,100434.21
2022-10-08T10:30:23.710Z,100429.93
2022-10-08T10:32:58.764Z,100424.91
2022-10-08T10:35:32.611Z,100425.10
2022-10-08T10:38:13.560Z,100420.49
2022-10-08T10:40:48.541Z,100424.71
2022-10-08T10:43:29.089Z,100422.58
2022-10-08T10:46:13.390Z,100416.49
2022-10-08T10:48:44.411Z,100410.93
2022-10-08T10:51:28.923Z,100409.14
2022-10-08T10:54:13.333Z,100409.70
2022-10-08T10:56:50.422Z,100406.70
2022-10-08T10:59:36.735Z,100407.22
2022-10-08T11:02:16.325Z,100401.94
2022-10-08T11:05:01.733Z,100401.00
2022-10-08T11:07:52.226Z,100396.98
2022-10-08T11:10:36.802Z,100395.66
2022-10-08T11:13:20.089Z,100397.20
2022-10-08T11:16:01.266Z,100393.54
2022-10-08T11:18:43.472Z,100390.92
2022-10-08T11:21:28.725Z,100389.32
2022-10-08T11:24:17.379Z,100389.38
2022-10-08T11:26:57.697Z,100386.71
2022-10-08T11:29:35.332Z,100382.94
2022-10-08T11:32:09.287Z,100378.64
2022-10-08T11:34:42.030Z,100381.05
2022-10-08T11:37:19.917Z,100377.69
2022-10-08T11:40:00.868Z,100373.52
2022-10-08T11:42:42.140Z,100369.43
2022-10-08T11:45:34.006Z,100368.86
2022-10-08T11:48:35.247Z,100360.75
2022-10-08T11:51:43.048Z,100360.12
2022-10-08T11:54:25.910Z,100357.30
2022-10-08T11:57:14.434Z,100357.58
2022-10-08T11:59:47.448Z,100348.91
2022-10-08T12:02:30.333Z,100344.96
2022-10-08T12:05:18.535Z,100348.54
2022-10-08T12:07:54.171Z,100338.94
2022-10-08T12:10:32.701Z,100341.96
2022-10-08T12:13:27.795Z,100337.96
2022-10-08T12:16:07.075Z,100332.11
2022-10-08T12:18:54.825Z,100332.72
2022-10-08T12:21:57.633Z,100336.27
2022-10-08T12:24:58.756Z,100335.89
2022-10-08T12:27:42.904Z,100332.41
2022-10-08T12:30:17.131Z,100332.30
2022-10-08T12:32:58.839Z,100327.09
2022-10-08T12:35:32.154Z,100331.83
2022-10-08T12:38:13.685Z,100332.89
2022-10-08T12:40:51.451Z,100332.20
2022-10-08T12:43:29.222Z,100331.06
2022-10-08T12:46:12.241Z,100335.25
2022-10-08T12:48:50.610Z,100330.05
2022-10-08T12:51:31.138Z,100332.45
2022-10-08T12:54:02.881Z,100335.13
2022-10-08T12:56:34.171Z,100330.96
2022-10-08T12:59:08.669Z,100327.02
2022-10-08T13:01:41.692Z,100329.22
2022-10-08T13:04:20.268Z,100323.60
2022-10-08T13:06:53.120Z,100321.77
2022-10-08T13:09:30.475Z,100322.78
2022-10-08T13:12:04.115Z,100322.06
2022-10-08T13:14:36.625Z,100322.89
2022-10-08T13:17:27.787Z,100320.80
2022-10-08T13:20:15.175Z,100315.88
2022-10-08T13:22:46.486Z,100314.48
2022-10-08T13:25:37.898Z,100314.86
2022-10-08T13:28:14.952Z,100312.23
2022-10-08T13:30:47.128Z,100312.27
2022-10-08T13:33:21.098Z,100310.60
2022-10-08T13:35:57.310Z,100313.21
2022-10-08T13:38:31.706Z,100312.86
2022-10-08T13:41:06.251Z,100311.17
2022-10-08T13:43:37.254Z,100308.76
2022-10-08T13:46:08.272Z,100305.02
2022-10-08T13:48:45.674Z,100307.51
2022-10-08T13:51:16.644Z,100307.94
2022-10-08T13:53:47.748Z,100306.42
2022-10-08T13:56:20.575Z,100305.19
2022-10-08T13:58:51.424Z,100296.27
2022-10-08T14:01:22.386Z,100293.67
2022-10-08T14:03:53.184Z,100294.41
2022-10-08T14:06:24.123Z,100299.80
2022-10-08T14:08:55.064Z,100296.60
2022-10-08T14:11:26.261Z,100289.73
2022-10-08T14:13:57.130Z,100286.76
2022-10-08T14:16:28.096Z,100285.74
2022-10-08T14:18:59.629Z,100283.19
2022-10-08T14:21:30.838Z,100281.92
2022-10-08T14:24:01.631Z,100278.69
2022-10-08T14:26:32.660Z,100279.70
2022-10-08T14:29:03.476Z,100276.42
2022-10-08T14:31:34.482Z,100278.48
2022-10-08T14:34:05.397Z,100282.95
2022-10-08T14:36:39.699Z,100280.56
2022-10-08T14:39:11.181Z,100281.19
2022-10-08T14:41:44.051Z,100278.92
2022-10-08T14:44:16.774Z,100280.63
2022-10-08T14:46:48.933Z,100273.55
2022-10-08T14:49:20.032Z,100270.05
2022-10-08T14:51:51.004Z,100269.46
2022-10-08T14:54:22.566Z,100274.48
2022-10-08T14:56:53.379Z,100267.54
2022-10-08T14:59:24.179Z,100265.40
2022-10-08T15:01:55.135Z,100262.45
2022-10-08T15:04:26.165Z,100260.87
2022-10-08T15:06:57.226Z,100262.55
2022-10-08T15:09:28.523Z,100263.39
2022-10-08T15:11:59.346Z,100264.52
2022-10-08T15:14:33.234Z,100260.20
2022-10-08T15:17:06.543Z,100257.45
2022-10-08T15:19:37.765Z,100262.86
2022-10-08T15:22:08.781Z,100261.98
2022-10-08T15:24:39.604Z,100256.17
2022-10-08T15:27:10.822Z,100254.82
2022-10-08T15:29:41.692Z,100256.45
2022-10-08T15:32:12.543Z,100253.36
2022-10-08T15:34:43.392Z,100250.98
2022-10-08T15:37:14.786Z,100249.45
2022-10-08T15:39:45.929Z,100255.14
2022-10-08T15:42:16.805Z,100262.34
2022-10-08T15:44:48.355Z,100263.33
2022-10-08T15:47:19.225Z,100265.81
2022-10-08T15:49:50.270Z,100268.98
2022-10-08T15:52:22.970Z,100270.95
2022-10-08T15:54:53.810Z,100272.20
2022-10-08T15:57:24.774Z,100276.41
2022-10-08T15:59:55.831Z,100281.48
2022-10-08T16:02:27.031Z,100287.09
2022-10-08T16:04:58.083Z,100289.39
2022-10-08T16:07:29.384Z,100297.69
2022-10-08T16:10:00.389Z,100301.84
2022-10-08T16:12:31.687Z,100320.69
2022-10-08T16:15:02.554Z,100327.18
2022-10-08T16:17:33.615Z,100329.74
2022-10-08T16:20:05.066Z,100324.45
2022-10-08T16:22:35.870Z,100330.43
2022-10-08T16:25:07.263Z,100332.84
2022-10-08T16:27:38.068Z,100333.96
2022-10-08T16:30:11.570Z,100329.41
2022-10-08T16:32:42.408Z,100333.00
2022-10-08T16:35:13.572Z,100329.73
2022-10-08T16:37:44.380Z,100335.90
2022-10-08T16:40:15.549Z,100332.86
2022-10-08T16:42:46.721Z,100330.51
2022-10-08T16:45:18.446Z,100328.98
2022-10-08T16:47:49.384Z,100329.58
2022-10-08T16:50:20.533Z,100335.14
2022-10-08T16:52:53.845Z,100342.63
2022-10-08T16:55:25.182Z,100342.70
2022-10-08T16:57:56.183Z,100346.37
2022-10-08T17:00:27.298Z,100345.00
2022-10-08T17:02:58.511Z,100351.40
2022-10-08T17:05:30.162Z,100353.16
2022-10-08T17:08:01.250Z,100354.36
2022-10-08T17:10:33.063Z,100358.14
2022-10-08T17:13:04.301Z,100361.39
2022-10-08T17:15:35.358Z,100364.09
2022-10-08T17:18:06.742Z,100363.48
2022-10-08T17:20:37.695Z,100365.65
2022-10-08T17:23:08.788Z,100367.73
2022-10-08T17:25:39.924Z,100370.95
2022-10-08T17:28:10.728Z,100370.92
2022-10-08T17:30:41.950Z,100378.92
2022-10-08T17:33:13.154Z,100378.52
2022-10-08T17:35:44.192Z,100389.79
2022-10-08T17:38:15.104Z,100391.40
2022-10-08T17:40:45.939Z,100393.56
2022-10-08T17:43:16.838Z,100399.17
2022-10-08T17:45:48.685Z,100396.50
2022-10-08T17:48:19.958Z,100396.59
2022-10-08T17:50:50.827Z,100404.61
2022-10-08T17:53:21.741Z,100404.10
2022-10-08T17:56:01.716Z,100403.95
2022-10-08T17:58:32.925Z,100405.88
2022-10-08T18:01:10.286Z,100400.77
2022-10-08T18:03:44.213Z,100401.71
2022-10-08T18:06:15.172Z,100406.45
2022-10-08T18:08:46.083Z,100409.15
2022-10-08T18:11:21.741Z,100410.08
2022-10-08T18:13:53.853Z,100406.17
2022-10-08T18:16:26.731Z,100399.53
2022-10-08T18:18:58.073Z,100405.33
2022-10-08T18:21:30.196Z,100410.45
2022-10-08T18:24:02.203Z,100422.14
2022-10-08T18:26:35.000Z,100426.59
2022-10-08T18:29:09.282Z,100434.98
2022-10-08T18:31:42.203Z,100430.98
2022-10-08T18:34:16.041Z,100432.98
2022-10-08T18:36:47.628Z,100435.80
2022-10-08T18:39:23.540Z,100434.70
2022-10-08T18:41:58.370Z,100431.20
2022-10-08T18:44:30.625Z,100432.02
2022-10-08T18:47:05.275Z,100431.98
2022-10-08T18:49:37.152Z,100434.03
2022-10-08T18:52:08.167Z,100438.98
2022-10-08T18:54:39.072Z,100437.02
2022-10-08T18:57:10.208Z,100435.92
2022-10-08T18:59:40.966Z,100438.22
2022-10-08T19:02:12.825Z,100439.34
2022-10-08T19:04:43.968Z,100438.90
2022-10-08T19:07:15.132Z,100441.58
2022-10-08T19:09:45.997Z,100446.05
2022-10-08T19:12:17.093Z,100447.20
2022-10-08T19:14:49.546Z,100448.23
2022-10-08T19:17:20.622Z,100455.58
2022-10-08T19:19:51.485Z,100461.86
2022-10-08T19:22:22.665Z,100463.69
2022-10-08T19:24:53.849Z,100468.94
2022-10-08T19:27:24.855Z,100468.52
2022-10-08T19:29:55.683Z,100475.51
2022-10-08T19:32:26.781Z,100478.88
2022-10-08T19:34:57.723Z,100481.36
2022-10-08T19:37:28.616Z,100489.23
2022-10-08T19:39:59.450Z,100493.13
2022-10-08T19:42:33.877Z,100494.27
2022-10-08T19:45:06.279Z,100496.58
2022-10-08T19:47:37.156Z,100499.41
2022-10-08T19:50:09.430Z,100496.09
2022-10-08T19:52:40.377Z,100502.39
2022-10-08T19:55:12.466Z,100506.14
2022-10-08T19:57:44.809Z,100508.35
2022-10-08T20:00:17.453Z,100511.92
2022-10-08T20:02:48.834Z,100514.80
2022-10-08T20:05:21.018Z,100517.31
2022-10-08T20:07:53.383Z,100515.02
2022-10-08T20:10:24.652Z,100514.79
2022-10-08T20:12:55.689Z,100512.33
2022-10-08T20:15:26.708Z,100513.10
2022-10-08T20:17:58.900Z,100512.55
2022-10-08T20:20:33.582Z,100514.37
2022-10-08T20:23:05.284Z,100513.78
2022-10-08T20:25:37.032Z,100513.72
2022-10-08T20:28:08.078Z,100522.08
2022-10-08T20:30:40.270Z,100523.35
2022-10-08T20:33:11.183Z,100524.27
2022-10-08T20:35:41.989Z,100530.36
2022-10-08T20:38:12.826Z,100536.23
2022-10-08T20:40:43.667Z,100540.38
2022-10-08T20:43:14.604Z,100540.56
2022-10-08T20:45:45.464Z,100538.51
2022-10-08T20:48:16.433Z,100536.13
2022-10-08T20:50:47.370Z,100539.05
2022-10-08T20:53:18.322Z,100548.66
2022-10-08T20:55:49.182Z,100550.40
2022-10-08T20:58:20.080Z,100549.73
2022-10-08T21:00:50.934Z,100553.19
2022-10-08T21:03:21.786Z,100556.30
2022-10-08T21:05:53.000Z,100554.76
2022-10-08T21:08:23.855Z,100559.60
2022-10-08T21:10:54.792Z,100564.45
2022-10-08T21:13:25.666Z,100568.61
2022-10-08T21:16:04.477Z,100573.98
2022-10-08T21:18:36.333Z,100577.65
2022-10-08T21:21:09.473Z,100579.23
2022-10-08T21:23:40.909Z,100582.91
2022-10-08T21:26:15.763Z,100582.33
2022-10-08T21:28:48.911Z,100580.00
2022-10-08T21:31:21.764Z,100585.73
2022-10-08T21:33:54.271Z,100586.36
2022-10-08T21:36:27.138Z,100585.38
2022-10-08T21:38:58.858Z,100588.03
2022-10-08T21:41:32.920Z,100590.15
2022-10-08T21:44:05.864Z,100591.91
2022-10-08T21:46:39.208Z,100596.44
2022-10-08T21:49:13.104Z,100587.20
2022-10-08T21:51:44.898Z,100588.78
2022-10-08T21:54:16.942Z,100593.66
2022-10-08T21:56:47.833Z,100592.66
2022-10-08T21:59:18.910Z,100600.95
2022-10-08T22:01:51.618Z,100598.10
2022-10-08T22:04:24.411Z,100593.52
2022-10-08T22:06:58.807Z,100604.40
2022-10-08T22:09:32.382Z,100611.84
2022-10-08T22:12:04.129Z,100616.35
2022-10-08T22:14:34.898Z,100619.65
2022-10-08T22:17:05.722Z,100619.21
2022-10-08T22:19:38.527Z,100619.63
2022-10-08T22:22:09.272Z,100623.81
2022-10-08T22:24:40.348Z,100620.60
2022-10-08T22:27:11.148Z,100622.73
2022-10-08T22:29:41.923Z,100627.80
2022-10-08T22:32:12.806Z,100624.47
2022-10-08T22:34:43.585Z,100623.16
2022-10-08T22:37:14.641Z,100628.05
2022-10-08T22:39:45.425Z,100627.29
2022-10-08T22:42:16.285Z,100627.39
2022-10-08T22:44:47.178Z,100621.45
2022-10-08T22:47:18.517Z,100614.48
2022-10-08T22:49:49.396Z,100619.48
2022-10-08T22:52:21.018Z,100625.02
2022-10-08T22:54:51.827Z,100631.44
2022-10-08T22:57:22.710Z,100634.59
2022-10-08T22:59:53.578Z,100640.64
2022-10-08T23:02:24.617Z,100644.13
2022-10-08T23:04:55.496Z,100642.14
2022-10-08T23:07:26.495Z,100649.89
2022-10-08T23:09:57.324Z,100659.21
2022-10-08T23:12:28.232Z,100661.84
2022-10-08T23:14:59.105Z,100667.40
2022-10-08T23:17:29.909Z,100671.73
2022-10-08T23:20:00.794Z,100672.29
2022-10-08T23:22:33.519Z,100677.95
2022-10-08T23:25:04.514Z,100677.60
2022-10-08T23:27:35.375Z,100678.29
2022-10-08T23:30:20.630Z,100682.07
2022-10-08T23:32:56.663Z,100683.63
2022-10-08T23:35:27.547Z,100684.33
2022-10-08T23:37:58.401Z,100684.89
2022-10-08T23:40:29.893Z,100700.35
2022-10-08T23:43:00.772Z,100703.11
2022-10-08T23:45:32.194Z,100703.48
2022-10-08T23:48:03.069Z,100704.48
2022-10-08T23:50:36.564Z,100706.69
2022-10-08T23:53:07.402Z,100707.19
2022-10-08T23:55:38.222Z,100710.92
2022-10-08T23:58:09.707Z,100716.05
